createdAt,value
2018-04-15T00:02:09.758Z,13.00
2018-04-15T00:04:37.863Z,12.40
2018-04-15T00:07:06.340Z,12.40
2018-04-15T00:09:34.883Z,12.40
2018-04-15T00:12:02.943Z,12.40
2018-04-15T00:14:31.468Z,12.50
2018-04-15T00:17:00.216Z,12.40
2018-04-15T00:19:29.429Z,12.00
2018-04-15T00:21:57.897Z,11.90
2018-04-15T00:24:26.384Z,11.90
2018-04-15T00:26:54.447Z,11.90
2018-04-15T00:29:22.701Z,11.80
2018-04-15T00:31:52.002Z,11.90
2018-04-15T00:34:20.025Z,11.90
2018-04-15T00:36:48.239Z,11.90
2018-04-15T00:39:16.665Z,11.80
2018-04-15T00:41:44.719Z,12.00
2018-04-15T00:44:12.932Z,12.00
2018-04-15T00:46:41.489Z,11.90
2018-04-15T00:49:09.546Z,11.80
2018-04-15T00:51:38.075Z,11.80
2018-04-15T00:54:21.559Z,11.60
2018-04-15T00:56:50.196Z,11.60
2018-04-15T00:59:18.248Z,11.60
2018-04-15T01:01:47.000Z,11.50
2018-04-15T01:04:16.100Z,11.50
2018-04-15T01:06:44.151Z,11.40
2018-04-15T01:09:12.667Z,11.40
2018-04-15T01:11:41.067Z,11.40
2018-04-15T01:14:09.125Z,11.40
2018-04-15T01:16:37.695Z,11.30
2018-04-15T01:19:06.209Z,11.30
2018-04-15T01:21:34.278Z,11.30
2018-04-15T01:24:03.023Z,11.20
2018-04-15T01:26:32.268Z,11.20
2018-04-15T01:29:00.328Z,11.10
2018-04-15T01:31:28.893Z,11.10
2018-04-15T01:36:32.392Z,11.10
2018-04-15T01:39:00.917Z,11.10
2018-04-15T01:41:28.972Z,11.10
2018-04-15T01:43:57.728Z,11.00
2018-04-15T01:46:26.977Z,10.90
2018-04-15T01:48:55.022Z,10.90
2018-04-15T01:51:23.477Z,10.90
2018-04-15T01:53:52.713Z,10.80
2018-04-15T01:56:20.789Z,10.70
2018-04-15T01:58:49.532Z,10.70
2018-04-15T02:01:18.777Z,10.60
2018-04-15T02:03:46.833Z,10.50
2018-04-15T02:06:15.591Z,10.60
2018-04-15T02:08:44.834Z,10.60
2018-04-15T02:11:12.886Z,10.50
2018-04-15T02:13:41.342Z,10.50
2018-04-15T02:16:10.606Z,10.50
2018-04-15T02:18:38.660Z,10.40
2018-04-15T02:21:07.208Z,10.40
2018-04-15T02:23:35.734Z,10.30
2018-04-15T02:26:03.788Z,10.20
2018-04-15T02:28:32.074Z,10.10
2018-04-15T02:31:00.590Z,10.10
2018-04-15T02:33:29.406Z,10.00
2018-04-15T02:35:57.976Z,10.00
2018-04-15T02:38:27.236Z,10.00
2018-04-15T02:40:55.288Z,10.00
2018-04-15T02:43:24.032Z,9.90
2018-04-15T02:45:52.983Z,9.80
2018-04-15T02:48:21.039Z,9.80
2018-04-15T02:50:49.605Z,9.80
2018-04-15T02:53:18.112Z,9.80
2018-04-15T02:55:46.189Z,9.80
2018-04-15T02:58:14.726Z,9.70
2018-04-15T03:00:43.233Z,9.70
2018-04-15T03:03:11.294Z,9.60
2018-04-15T03:05:39.878Z,9.50
2018-04-15T03:08:08.027Z,9.50
2018-04-15T03:10:36.098Z,9.50
2018-04-15T03:13:04.697Z,9.40
2018-04-15T03:15:33.228Z,9.50
2018-04-15T03:18:02.053Z,9.50
2018-04-15T03:20:30.919Z,9.40
2018-04-15T03:22:59.293Z,9.50
2018-04-15T03:25:28.117Z,9.50
2018-04-15T03:27:56.499Z,9.50
2018-04-15T03:30:25.004Z,9.50
2018-04-15T03:32:53.064Z,9.50
2018-04-15T03:35:21.626Z,9.50
2018-04-15T03:37:50.144Z,9.40
2018-04-15T03:40:18.205Z,9.40
2018-04-15T03:42:46.954Z,9.50
2018-04-15T03:45:15.579Z,9.50
2018-04-15T03:47:43.637Z,9.40
2018-04-15T03:50:12.201Z,9.50
2018-04-15T03:52:40.716Z,9.40
2018-04-15T03:55:08.772Z,9.40
2018-04-15T03:57:37.336Z,9.40
2018-04-15T04:00:05.860Z,9.40
2018-04-15T04:02:33.917Z,9.40
2018-04-15T04:05:02.479Z,9.40
2018-04-15T04:07:30.984Z,9.30
2018-04-15T04:09:59.042Z,9.30
2018-04-15T04:12:27.612Z,9.30
2018-04-15T04:14:56.131Z,9.20
2018-04-15T04:17:36.661Z,9.30
2018-04-15T04:20:16.401Z,9.30
2018-04-15T04:22:56.761Z,9.30
2018-04-15T04:25:45.547Z,9.20
2018-04-15T04:28:14.102Z,9.20
2018-04-15T04:30:42.612Z,9.10
2018-04-15T04:33:10.669Z,9.00
2018-04-15T04:35:39.425Z,9.00
2018-04-15T04:38:08.670Z,8.90
2018-04-15T04:40:36.722Z,8.90
2018-04-15T04:43:05.321Z,8.90
2018-04-15T04:45:33.796Z,8.90
2018-04-15T04:48:01.872Z,8.90
2018-04-15T04:50:30.431Z,8.80
2018-04-15T04:52:58.637Z,8.60
2018-04-15T04:55:26.703Z,8.50
2018-04-15T04:57:54.868Z,8.50
2018-04-15T05:00:23.460Z,8.40
2018-04-15T05:02:51.561Z,8.40
2018-04-15T05:05:20.091Z,8.40
2018-04-15T05:07:48.183Z,8.60
2018-04-15T05:10:16.240Z,8.60
2018-04-15T05:12:44.597Z,8.50
2018-04-15T05:15:13.110Z,8.50
2018-04-15T05:17:42.433Z,8.50
2018-04-15T05:20:10.970Z,8.50
2018-04-15T05:22:39.477Z,8.60
2018-04-15T05:25:07.545Z,8.70
2018-04-15T05:27:36.291Z,8.70
2018-04-15T05:30:05.239Z,8.80
2018-04-15T05:32:33.300Z,8.80
2018-04-15T05:35:01.848Z,8.70
2018-04-15T05:37:30.381Z,8.80
2018-04-15T05:39:58.459Z,8.80
2018-04-15T05:42:28.103Z,8.70
2018-04-15T05:44:57.337Z,8.80
2018-04-15T05:47:25.432Z,8.70
2018-04-15T05:49:54.100Z,8.80
2018-04-15T05:52:22.254Z,8.90
2018-04-15T05:54:50.329Z,8.90
2018-04-15T05:57:18.985Z,9.00
2018-04-15T05:59:47.935Z,9.00
2018-04-15T06:02:15.988Z,9.00
2018-04-15T06:04:44.538Z,9.20
2018-04-15T06:07:13.069Z,9.30
2018-04-15T06:09:41.122Z,9.30
2018-04-15T06:12:09.673Z,9.40
2018-04-15T06:14:37.885Z,9.40
2018-04-15T06:17:05.948Z,9.40
2018-04-15T06:19:34.522Z,9.50
2018-04-15T06:22:03.028Z,9.30
2018-04-15T06:24:31.125Z,9.30
2018-04-15T06:26:59.343Z,9.30
2018-04-15T06:29:27.846Z,9.30
2018-04-15T06:31:55.909Z,9.40
2018-04-15T06:34:24.772Z,9.40
2018-04-15T06:36:53.340Z,9.50
2018-04-15T06:39:21.374Z,9.50
2018-04-15T06:41:49.519Z,9.60
2018-04-15T06:44:17.814Z,9.80
2018-04-15T06:46:45.885Z,9.70
2018-04-15T06:49:15.069Z,9.70
2018-04-15T06:51:43.685Z,9.70
2018-04-15T06:54:11.760Z,9.70
2018-04-15T06:56:40.173Z,9.80
2018-04-15T06:59:08.380Z,10.00
2018-04-15T07:01:37.048Z,10.00
2018-04-15T07:04:05.503Z,10.20
2018-04-15T07:06:33.832Z,10.20
2018-04-15T07:09:01.895Z,10.20
2018-04-15T07:11:30.330Z,10.20
2018-04-15T07:13:59.278Z,10.30
2018-04-15T07:16:27.346Z,10.30
2018-04-15T07:18:55.612Z,10.40
2018-04-15T07:21:24.104Z,10.60
2018-04-15T07:23:52.170Z,10.50
2018-04-15T07:26:20.724Z,10.70
2018-04-15T07:28:49.258Z,10.80
2018-04-15T07:31:18.076Z,11.00
2018-04-15T07:33:46.810Z,11.00
2018-04-15T07:36:15.306Z,11.20
2018-04-15T07:38:43.380Z,11.30
2018-04-15T07:41:12.830Z,11.40
2018-04-15T07:43:41.045Z,11.30
2018-04-15T07:46:09.109Z,11.30
2018-04-15T07:48:37.541Z,11.40
2018-04-15T07:51:06.814Z,11.60
2018-04-15T07:53:35.640Z,11.60
2018-04-15T07:56:04.034Z,11.60
2018-04-15T07:58:32.532Z,11.80
2018-04-15T08:01:00.603Z,11.90
2018-04-15T08:03:29.346Z,12.00
2018-04-15T08:05:58.616Z,12.40
2018-04-15T08:08:27.487Z,12.30
2018-04-15T08:10:56.016Z,12.30
2018-04-15T08:13:24.862Z,12.60
2018-04-15T08:15:52.933Z,12.60
2018-04-15T08:18:21.461Z,12.80
2018-04-15T08:20:50.458Z,12.90
2018-04-15T08:23:18.530Z,12.90
2018-04-15T08:25:47.210Z,12.80
2018-04-15T08:28:16.454Z,12.90
2018-04-15T08:30:44.522Z,12.90
2018-04-15T08:33:13.264Z,13.00
2018-04-15T08:35:42.517Z,13.30
2018-04-15T08:38:10.589Z,13.30
2018-04-15T08:40:38.826Z,13.40
2018-04-15T08:43:07.349Z,13.70
2018-04-15T08:45:35.415Z,14.00
2018-04-15T08:48:04.165Z,14.00
2018-04-15T08:50:33.387Z,14.30
2018-04-15T08:53:01.492Z,14.20
2018-04-15T08:55:30.631Z,14.50
2018-04-15T08:57:59.139Z,14.40
2018-04-15T09:00:27.213Z,14.60
2018-04-15T09:02:55.649Z,14.60
2018-04-15T09:05:24.599Z,14.60
2018-04-15T09:07:52.682Z,14.60
2018-04-15T09:10:22.135Z,14.70
2018-04-15T09:12:50.347Z,14.70
2018-04-15T09:15:18.422Z,14.70
2018-04-15T09:17:47.149Z,14.80
2018-04-15T09:20:16.246Z,15.10
2018-04-15T09:22:44.308Z,15.10
2018-04-15T09:25:12.714Z,15.20
2018-04-15T09:27:40.920Z,15.30
2018-04-15T09:30:09.040Z,15.50
2018-04-15T09:32:37.416Z,15.50
2018-04-15T09:35:06.664Z,15.50
2018-04-15T09:37:34.735Z,15.50
2018-04-15T09:40:03.478Z,15.60
2018-04-15T09:42:32.463Z,15.70
2018-04-15T09:45:00.515Z,15.70
2018-04-15T09:47:30.258Z,15.90
2018-04-15T09:49:58.312Z,15.80
2018-04-15T09:52:26.387Z,15.90
2018-04-15T09:54:55.400Z,15.90
2018-04-15T09:57:23.454Z,15.80
2018-04-15T09:59:51.520Z,15.90
2018-04-15T10:02:20.370Z,15.90
2018-04-15T10:04:48.410Z,15.80
2018-04-15T10:07:16.474Z,15.80
2018-04-15T10:09:45.356Z,15.80
2018-04-15T10:12:13.415Z,15.80
2018-04-15T10:14:41.488Z,15.70
2018-04-15T10:17:10.185Z,15.80
2018-04-15T10:19:38.249Z,15.80
2018-04-15T10:22:06.311Z,15.70
2018-04-15T10:24:35.317Z,15.50
2018-04-15T10:27:03.384Z,15.40
2018-04-15T10:29:31.444Z,15.30
2018-04-15T10:32:00.463Z,15.40
2018-04-15T10:34:28.534Z,15.50
2018-04-15T10:36:56.588Z,15.60
2018-04-15T10:39:25.588Z,15.60
2018-04-15T10:41:53.661Z,15.70
2018-04-15T10:44:21.721Z,15.80
2018-04-15T10:46:50.721Z,15.90
2018-04-15T10:49:18.800Z,16.00
2018-04-15T10:51:46.857Z,16.00
2018-04-15T10:54:15.865Z,16.00
2018-04-15T10:56:43.949Z,16.00
2018-04-15T10:59:12.010Z,15.90
2018-04-15T11:01:40.874Z,16.10
2018-04-15T11:04:09.710Z,16.40
2018-04-15T11:06:37.779Z,16.30
2018-04-15T11:09:06.745Z,16.60
2018-04-15T11:11:34.807Z,16.60
2018-04-15T11:14:02.909Z,16.80
2018-04-15T11:16:31.329Z,16.90
2018-04-15T11:18:59.398Z,17.00
2018-04-15T11:21:27.464Z,17.10
2018-04-15T11:23:56.587Z,17.40
2018-04-15T11:26:25.393Z,17.60
2018-04-15T11:28:53.472Z,17.60
2018-04-15T11:31:22.465Z,17.60
2018-04-15T11:33:50.512Z,17.60
2018-04-15T11:36:18.578Z,17.70
2018-04-15T11:38:47.294Z,17.90
2018-04-15T11:41:15.352Z,18.30
2018-04-15T11:43:43.416Z,18.60
2018-04-15T11:46:12.414Z,19.00
2018-04-15T11:48:40.478Z,19.30
2018-04-15T11:51:08.544Z,19.60
2018-04-15T11:53:37.552Z,19.80
2018-04-15T11:56:05.617Z,20.40
2018-04-15T11:58:33.687Z,20.50
2018-04-15T12:01:02.568Z,20.70
2018-04-15T12:03:31.365Z,21.40
2018-04-15T12:05:59.460Z,21.40
2018-04-15T12:08:28.438Z,21.80
2018-04-15T12:10:56.507Z,21.90
2018-04-15T12:13:24.577Z,22.30
2018-04-15T12:15:53.580Z,22.50
2018-04-15T12:18:22.090Z,22.80
2018-04-15T12:20:50.167Z,23.00
2018-04-15T12:23:18.593Z,22.70
2018-04-15T12:25:47.850Z,22.50
2018-04-15T12:28:15.912Z,22.50
2018-04-15T12:30:44.461Z,22.90
2018-04-15T12:33:12.665Z,23.40
2018-04-15T12:35:40.740Z,23.40
2018-04-15T12:38:09.474Z,23.50
2018-04-15T12:40:38.441Z,23.80
2018-04-15T12:43:07.273Z,24.10
2018-04-15T12:45:35.645Z,24.10
2018-04-15T12:48:03.859Z,23.90
2018-04-15T12:50:31.992Z,24.20
2018-04-15T12:53:00.476Z,24.30
2018-04-15T12:55:28.988Z,23.90
2018-04-15T12:57:57.059Z,23.80
2018-04-15T13:00:25.617Z,23.80
2018-04-15T13:02:54.126Z,23.30
2018-04-15T13:05:22.196Z,22.90
2018-04-15T13:07:50.746Z,22.70
2018-04-15T13:10:19.272Z,22.60
2018-04-15T13:12:47.332Z,22.50
2018-04-15T13:15:15.762Z,22.60
2018-04-15T13:17:44.736Z,22.90
2018-04-15T13:20:13.557Z,22.90
2018-04-15T13:22:42.431Z,22.90
2018-04-15T13:25:11.712Z,23.50
2018-04-15T13:27:40.542Z,24.00
2018-04-15T13:30:08.929Z,24.00
2018-04-15T13:32:37.312Z,24.10
2018-04-15T13:35:05.373Z,24.10
2018-04-15T13:37:33.741Z,23.80
2018-04-15T13:40:02.271Z,23.90
2018-04-15T13:42:30.333Z,24.50
2018-04-15T13:44:58.763Z,24.40
2018-04-15T13:47:27.109Z,24.30
2018-04-15T13:49:55.931Z,24.50
2018-04-15T13:52:26.122Z,24.50
2018-04-15T13:54:54.285Z,24.40
2018-04-15T13:57:22.347Z,23.70
2018-04-15T13:59:50.677Z,23.50
2018-04-15T14:02:19.197Z,23.60
2018-04-15T14:04:47.280Z,23.90
2018-04-15T14:07:15.817Z,23.70
2018-04-15T14:09:44.029Z,23.70
2018-04-15T14:12:12.103Z,24.10
2018-04-15T14:14:40.643Z,24.20
2018-04-15T14:17:09.161Z,24.30
2018-04-15T14:19:37.237Z,24.00
2018-04-15T14:22:05.969Z,23.50
2018-04-15T14:24:34.897Z,23.50
2018-04-15T14:27:02.966Z,23.50
2018-04-15T14:29:31.516Z,23.90
2018-04-15T14:32:00.046Z,24.20
2018-04-15T14:34:28.119Z,24.60
2018-04-15T14:36:56.653Z,24.60
2018-04-15T14:39:25.178Z,24.60
2018-04-15T14:41:53.242Z,24.00
2018-04-15T14:44:21.794Z,23.90
2018-04-15T14:46:50.160Z,23.70
2018-04-15T14:49:18.234Z,23.70
2018-04-15T14:51:46.616Z,23.60
2018-04-15T14:54:14.844Z,23.90
2018-04-15T14:56:42.908Z,23.90
2018-04-15T14:59:11.467Z,24.10
2018-04-15T15:01:39.668Z,24.30
2018-04-15T15:04:07.761Z,24.40
2018-04-15T15:06:37.204Z,24.30
2018-04-15T15:09:06.528Z,24.20
2018-04-15T15:11:34.598Z,24.20
2018-04-15T15:14:02.956Z,23.90
2018-04-15T15:16:31.147Z,23.60
2018-04-15T15:18:59.215Z,23.40
2018-04-15T15:21:27.788Z,23.50
2018-04-15T15:23:56.288Z,23.30
2018-04-15T15:26:24.402Z,23.40
2018-04-15T15:28:53.522Z,23.40
2018-04-15T15:31:21.730Z,23.40
2018-04-15T15:33:49.834Z,23.30
2018-04-15T15:36:18.377Z,23.30
2018-04-15T15:38:47.481Z,22.70
2018-04-15T15:41:15.569Z,22.70
2018-04-15T15:43:44.102Z,22.90
2018-04-15T15:46:12.621Z,23.00
2018-04-15T15:48:40.689Z,22.50
2018-04-15T15:51:09.233Z,22.40
2018-04-15T15:53:37.787Z,22.40
2018-04-15T15:56:06.608Z,22.10
2018-04-15T15:58:34.985Z,22.10
2018-04-15T16:01:03.503Z,22.00
2018-04-15T16:03:31.559Z,21.70
2018-04-15T16:06:00.312Z,21.30
2018-04-15T16:08:29.556Z,21.10
2018-04-15T16:10:57.617Z,21.10
2018-04-15T16:13:26.174Z,21.10
2018-04-15T16:15:54.376Z,20.90
2018-04-15T16:18:22.444Z,20.80
2018-04-15T16:20:50.696Z,20.80
2018-04-15T16:23:19.212Z,20.80
2018-04-15T16:25:47.286Z,20.70
2018-04-15T16:28:15.535Z,20.70
2018-04-15T16:30:43.725Z,20.60
2018-04-15T16:33:11.795Z,20.50
2018-04-15T16:35:40.053Z,20.60
2018-04-15T16:38:08.557Z,20.50
2018-04-15T16:40:36.618Z,20.50
2018-04-15T16:43:05.369Z,20.40
2018-04-15T16:45:33.746Z,20.40
2018-04-15T16:48:02.542Z,20.20
2018-04-15T16:50:30.930Z,20.20
2018-04-15T16:52:59.440Z,20.20
2018-04-15T16:55:27.534Z,20.10
2018-04-15T16:57:56.060Z,20.10
2018-04-15T17:00:24.577Z,20.10
2018-04-15T17:02:52.668Z,20.10
2018-04-15T17:05:21.389Z,20.00
2018-04-15T17:07:50.633Z,19.80
2018-04-15T17:10:18.727Z,19.80
2018-04-15T17:12:47.253Z,19.80
2018-04-15T17:15:15.487Z,19.80
2018-04-15T17:17:44.350Z,19.70
2018-04-15T17:20:12.993Z,19.60
2018-04-15T17:22:41.414Z,19.60
2018-04-15T17:25:09.423Z,19.50
2018-04-15T17:27:38.443Z,19.30
2018-04-15T17:30:06.981Z,19.30
2018-04-15T17:32:35.032Z,19.30
2018-04-15T17:35:03.600Z,19.20
2018-04-15T17:37:31.676Z,19.10
2018-04-15T17:39:59.738Z,19.00
2018-04-15T17:42:28.904Z,18.90
2018-04-15T17:44:56.942Z,18.80
2018-04-15T17:47:24.996Z,18.80
2018-04-15T17:49:54.163Z,18.70
2018-04-15T17:52:22.220Z,18.70
2018-04-15T17:54:50.300Z,18.50
2018-04-15T17:57:18.989Z,18.50
2018-04-15T17:59:47.054Z,18.40
2018-04-15T18:02:15.106Z,18.30
2018-04-15T18:04:44.310Z,18.30
2018-04-15T18:07:13.096Z,18.20
2018-04-15T18:09:41.172Z,18.20
2018-04-15T18:12:09.586Z,18.20
2018-04-15T18:14:37.648Z,18.00
2018-04-15T18:17:05.716Z,18.00
2018-04-15T18:19:34.886Z,17.90
2018-04-15T18:22:02.918Z,17.90
2018-04-15T18:24:30.985Z,17.90
2018-04-15T18:26:59.833Z,17.80
2018-04-15T18:29:27.894Z,17.70
2018-04-15T18:31:55.956Z,17.70
2018-04-15T18:34:24.973Z,17.70
2018-04-15T18:36:53.123Z,17.60
2018-04-15T18:39:21.097Z,17.30
2018-04-15T18:41:49.565Z,17.30
2018-04-15T18:44:18.390Z,17.20
2018-04-15T18:46:46.453Z,17.10
2018-04-15T18:49:14.941Z,17.10
2018-04-15T18:51:43.017Z,17.20
2018-04-15T18:54:11.119Z,17.20
2018-04-15T18:56:39.776Z,17.20
2018-04-15T18:59:07.832Z,17.20
2018-04-15T19:01:35.917Z,17.20
2018-04-15T19:04:05.083Z,17.10
2018-04-15T19:06:33.114Z,17.10
2018-04-15T19:09:01.183Z,17.00
2018-04-15T19:11:29.741Z,17.00
2018-04-15T19:13:57.787Z,17.10
2018-04-15T19:16:25.866Z,17.00
2018-04-15T19:18:55.044Z,16.90
2018-04-15T19:21:23.103Z,16.90
2018-04-15T19:23:51.937Z,16.80
2018-04-15T19:26:20.640Z,16.80
2018-04-15T19:28:48.721Z,16.80
2018-04-15T19:31:16.857Z,16.80
2018-04-15T19:33:45.738Z,16.80
2018-04-15T19:36:13.841Z,16.70
2018-04-15T19:38:41.896Z,16.60
2018-04-15T19:41:10.594Z,16.60
2018-04-15T19:43:38.672Z,16.60
2018-04-15T19:46:06.728Z,16.60
2018-04-15T19:48:35.413Z,16.60
2018-04-15T19:51:03.478Z,16.60
2018-04-15T19:53:31.545Z,16.60
2018-04-15T19:56:00.412Z,16.50
2018-04-15T19:58:29.228Z,16.40
2018-04-15T20:00:57.291Z,16.40
2018-04-15T20:03:26.469Z,16.40
2018-04-15T20:05:55.265Z,16.20
2018-04-15T20:08:23.330Z,16.10
2018-04-15T20:10:52.095Z,16.20
2018-04-15T20:13:20.149Z,16.20
2018-04-15T20:15:48.210Z,16.10
2018-04-15T20:18:16.428Z,16.00
2018-04-15T20:20:45.246Z,15.80
2018-04-15T20:23:13.459Z,15.80
2018-04-15T20:25:41.997Z,15.70
2018-04-15T20:28:10.077Z,15.60
2018-04-15T20:30:38.146Z,15.70
2018-04-15T20:33:07.125Z,15.70
2018-04-15T20:35:35.183Z,15.60
2018-04-15T20:38:03.264Z,15.40
2018-04-15T20:40:31.649Z,15.30
2018-04-15T20:42:59.697Z,15.40
2018-04-15T20:45:27.765Z,15.40
2018-04-15T20:47:56.799Z,15.30
2018-04-15T20:50:24.849Z,15.30
2018-04-15T20:52:52.938Z,15.20
2018-04-15T20:55:21.204Z,15.30
2018-04-15T20:57:49.280Z,15.20
2018-04-15T21:00:17.355Z,15.20
2018-04-15T21:02:46.011Z,15.10
2018-04-15T21:05:15.756Z,15.00
2018-04-15T21:07:43.862Z,15.00
2018-04-15T21:10:12.488Z,14.90
2018-04-15T21:12:40.552Z,15.00
2018-04-15T21:15:08.622Z,15.00
2018-04-15T21:17:37.628Z,14.80
2018-04-15T21:20:05.692Z,14.80
2018-04-15T21:22:33.766Z,14.70
2018-04-15T21:25:02.768Z,14.80
2018-04-15T21:27:30.820Z,14.70
2018-04-15T21:29:58.890Z,14.60
2018-04-15T21:32:28.506Z,14.60
2018-04-15T21:34:56.594Z,14.60
2018-04-15T21:37:24.654Z,14.60
2018-04-15T21:39:53.350Z,14.50
2018-04-15T21:42:21.457Z,14.50
2018-04-15T21:44:49.515Z,14.50
2018-04-15T21:47:17.991Z,14.50
2018-04-15T21:49:46.066Z,14.50
2018-04-15T21:52:14.117Z,14.50
2018-04-15T21:54:43.311Z,14.40
2018-04-15T21:57:11.373Z,14.40
2018-04-15T21:59:39.452Z,14.20
2018-04-15T22:02:08.439Z,14.30
2018-04-15T22:04:36.493Z,14.20
2018-04-15T22:07:04.561Z,14.20
2018-04-15T22:09:33.644Z,14.20
2018-04-15T22:12:13.321Z,14.20
2018-04-15T22:14:42.210Z,14.20
2018-04-15T22:17:11.011Z,14.10
2018-04-15T22:19:39.084Z,14.10
2018-04-15T22:22:07.824Z,14.20
2018-04-15T22:24:35.908Z,14.10
2018-04-15T22:27:04.189Z,14.00
2018-04-15T22:29:33.195Z,13.90
2018-04-15T22:32:01.295Z,13.90
2018-04-15T22:34:30.105Z,14.00
2018-04-15T22:36:59.037Z,13.90
2018-04-15T22:39:27.107Z,13.90
2018-04-15T22:41:55.173Z,13.90
2018-04-15T22:44:24.383Z,13.90
2018-04-15T22:46:52.446Z,14.00
2018-04-15T22:49:23.287Z,13.90
2018-04-15T22:51:51.985Z,13.90
2018-04-15T22:54:20.029Z,13.90
2018-04-15T22:56:48.108Z,13.90
2018-04-15T22:59:17.110Z,13.90
2018-04-15T23:01:45.202Z,13.90
2018-04-15T23:04:13.258Z,13.90
2018-04-15T23:06:42.019Z,13.80
2018-04-15T23:09:10.060Z,13.80
2018-04-15T23:11:38.137Z,13.90
2018-04-15T23:14:07.080Z,13.80
2018-04-15T23:16:35.144Z,13.90
2018-04-15T23:19:03.204Z,13.80
2018-04-15T23:21:31.970Z,13.80
2018-04-15T23:24:00.029Z,13.80
2018-04-15T23:26:28.082Z,13.90
2018-04-15T23:28:57.041Z,13.90
2018-04-15T23:31:25.097Z,13.80
2018-04-15T23:33:53.160Z,13.80
2018-04-15T23:36:22.365Z,13.80
2018-04-15T23:38:51.183Z,13.80
2018-04-15T23:41:20.005Z,13.80
2018-04-15T23:43:49.035Z,13.80
2018-04-15T23:46:17.834Z,13.80
2018-04-15T23:48:45.915Z,13.80
2018-04-15T23:51:14.900Z,13.80
2018-04-15T23:53:42.961Z,13.80
2018-04-15T23:56:11.036Z,13.80
2018-04-15T23:58:39.723Z,13.90
